createdAt,value
2023-03-29T00:00:50.140Z,101599.56
2023-03-29T00:03:18.620Z,101606.59
2023-03-29T00:05:46.937Z,101601.34
2023-03-29T00:08:15.341Z,101601.34
2023-03-29T00:10:43.543Z,101590.91
2023-03-29T00:13:11.785Z,101591.00
2023-03-29T00:15:39.946Z,101585.88
2023-03-29T00:18:09.457Z,101581.50
2023-03-29T00:20:37.710Z,101583.22
2023-03-29T00:23:06.226Z,101580.56
2023-03-29T00:25:34.391Z,101570.22
2023-03-29T00:28:02.535Z,101564.88
2023-03-29T00:30:31.215Z,101568.38
2023-03-29T00:32:59.465Z,101564.06
2023-03-29T00:35:29.282Z,101568.41
2023-03-29T00:37:57.746Z,101555.34
2023-03-29T00:40:27.788Z,101556.19
2023-03-29T00:42:56.929Z,101552.72
2023-03-29T00:45:27.557Z,101542.28
2023-03-29T00:48:00.037Z,101533.63
2023-03-29T00:50:34.402Z,101544.09
2023-03-29T00:53:05.722Z,101538.84
2023-03-29T00:55:38.598Z,101535.38
2023-03-29T00:58:13.002Z,101540.69
2023-03-29T01:00:45.493Z,101538.84
2023-03-29T01:03:24.666Z,101524.94
2023-03-29T01:06:00.140Z,101523.28
2023-03-29T01:08:31.837Z,101526.75
2023-03-29T01:11:04.772Z,101530.19
2023-03-29T01:13:39.417Z,101522.31
2023-03-29T01:16:10.577Z,101519.75
2023-03-29T01:18:39.750Z,101519.69
2023-03-29T01:21:19.478Z,101520.50
2023-03-29T01:23:58.295Z,101510.09
2023-03-29T01:26:35.960Z,101510.13
2023-03-29T01:29:10.713Z,101503.03
2023-03-29T01:31:42.255Z,101490.88
2023-03-29T01:34:13.796Z,101486.56
2023-03-29T01:36:49.604Z,101492.53
2023-03-29T01:39:19.022Z,101480.47
2023-03-29T01:41:59.018Z,101485.63
2023-03-29T01:44:35.578Z,101477.81
2023-03-29T01:47:11.984Z,101482.13
2023-03-29T01:49:45.370Z,101470.06
2023-03-29T01:52:18.467Z,101472.69
2023-03-29T01:54:53.887Z,101463.09
2023-03-29T01:57:25.097Z,101463.25
2023-03-29T01:59:57.614Z,101459.63
2023-03-29T02:02:30.110Z,101462.25
2023-03-29T02:04:59.328Z,101450.13
2023-03-29T02:07:30.589Z,101454.44
2023-03-29T02:10:00.304Z,101441.38
2023-03-29T02:12:28.850Z,101437.81
2023-03-29T02:15:00.735Z,101433.47
2023-03-29T02:17:31.546Z,101433.53
2023-03-29T02:20:13.721Z,101433.53
2023-03-29T02:22:47.925Z,101423.88
2023-03-29T02:25:18.239Z,101423.06
2023-03-29T02:27:47.061Z,101421.25
2023-03-29T02:30:19.284Z,101418.59
2023-03-29T02:32:55.918Z,101414.22
2023-03-29T02:35:34.332Z,101412.44
2023-03-29T02:38:05.563Z,101404.78
2023-03-29T02:40:35.878Z,101401.28
2023-03-29T02:43:07.818Z,101399.63
2023-03-29T02:45:41.149Z,101386.34
2023-03-29T02:48:13.392Z,101392.28
2023-03-29T02:50:45.282Z,101395.91
2023-03-29T02:53:17.923Z,101382.94
2023-03-29T02:55:49.604Z,101382.91
2023-03-29T02:58:17.760Z,101373.31
2023-03-29T03:00:50.326Z,101371.50
2023-03-29T03:03:18.593Z,101369.69
2023-03-29T03:05:51.186Z,101380.22
2023-03-29T03:08:19.828Z,101369.91
2023-03-29T03:10:48.721Z,101363.81
2023-03-29T03:13:17.143Z,101362.81
2023-03-29T03:15:49.159Z,101365.31
2023-03-29T03:18:18.321Z,101367.03
2023-03-29T03:20:56.082Z,101362.75
2023-03-29T03:23:25.058Z,101358.53
2023-03-29T03:25:53.921Z,101357.78
2023-03-29T03:28:24.161Z,101351.72
2023-03-29T03:30:54.248Z,101360.19
2023-03-29T03:33:44.843Z,101355.91
2023-03-29T03:36:34.654Z,101344.63
2023-03-29T03:39:06.031Z,101354.03
2023-03-29T03:41:34.553Z,101349.69
2023-03-29T03:44:03.325Z,101338.34
2023-03-29T03:46:33.854Z,101344.53
2023-03-29T03:49:04.531Z,101332.38
2023-03-29T03:51:41.911Z,101342.91
2023-03-29T03:54:10.577Z,101347.22
2023-03-29T03:56:38.737Z,101332.50
2023-03-29T03:59:15.609Z,101330.63
2023-03-29T04:01:55.680Z,101330.63
2023-03-29T04:04:25.707Z,101338.50
2023-03-29T04:07:04.776Z,101328.06
2023-03-29T04:09:41.225Z,101343.75
2023-03-29T04:12:44.950Z,101333.28
2023-03-29T04:15:13.409Z,101340.28
2023-03-29T04:17:49.271Z,101333.31
2023-03-29T04:20:31.667Z,101325.53
2023-03-29T04:23:01.487Z,101321.34
2023-03-29T04:25:30.350Z,101321.41
2023-03-29T04:28:32.492Z,101329.13
2023-03-29T04:31:21.490Z,101320.50
2023-03-29T04:34:09.653Z,101318.59
2023-03-29T04:36:38.862Z,101313.47
2023-03-29T04:39:14.713Z,101309.09
2023-03-29T04:41:44.757Z,101316.97
2023-03-29T04:44:19.241Z,101306.31
2023-03-29T04:46:47.426Z,101307.22
2023-03-29T04:49:40.375Z,101314.09
2023-03-29T04:52:14.997Z,101315.03
2023-03-29T04:54:43.489Z,101318.50
2023-03-29T04:57:34.595Z,101307.94
2023-03-29T05:00:16.950Z,101307.16
2023-03-29T05:03:04.480Z,101305.25
2023-03-29T05:05:36.840Z,101303.69
2023-03-29T05:08:05.180Z,101302.00
2023-03-29T05:10:47.536Z,101305.41
2023-03-29T05:13:16.713Z,101298.66
2023-03-29T05:15:44.867Z,101291.34
2023-03-29T05:18:13.510Z,101288.78
2023-03-29T05:20:44.017Z,101281.66
2023-03-29T05:23:17.510Z,101274.91
2023-03-29T05:26:09.935Z,101280.13
2023-03-29T05:28:39.522Z,101276.22
2023-03-29T05:31:09.053Z,101284.94
2023-03-29T05:33:40.637Z,101278.63
2023-03-29T05:36:13.639Z,101271.72
2023-03-29T05:38:46.841Z,101276.97
2023-03-29T05:41:16.559Z,101276.75
2023-03-29T05:44:07.464Z,101270.75
2023-03-29T05:46:37.075Z,101260.59
2023-03-29T05:49:06.483Z,101264.56
2023-03-29T05:51:52.027Z,101262.59
2023-03-29T05:54:20.668Z,101258.41
2023-03-29T05:56:48.966Z,101255.72
2023-03-29T05:59:18.101Z,101258.41
2023-03-29T06:01:47.435Z,101260.13
2023-03-29T06:04:19.044Z,101253.53
2023-03-29T06:07:00.317Z,101250.28
2023-03-29T06:09:28.728Z,101257.84
2023-03-29T06:12:02.349Z,101251.63
2023-03-29T06:14:45.659Z,101262.41
2023-03-29T06:17:40.219Z,101256.94
2023-03-29T06:20:10.992Z,101254.22
2023-03-29T06:22:43.420Z,101251.25
2023-03-29T06:25:14.172Z,101246.94
2023-03-29T06:27:43.553Z,101250.25
2023-03-29T06:30:14.542Z,101242.22
2023-03-29T06:32:46.950Z,101256.31
2023-03-29T06:35:34.558Z,101240.38
2023-03-29T06:38:09.136Z,101240.03
2023-03-29T06:41:04.555Z,101237.13
2023-03-29T06:43:49.729Z,101235.97
2023-03-29T06:46:17.986Z,101243.63
2023-03-29T06:48:57.932Z,101241.13
2023-03-29T06:51:33.512Z,101234.56
2023-03-29T06:54:04.177Z,101231.81
2023-03-29T06:56:34.199Z,101220.59
2023-03-29T06:59:09.305Z,101216.00
2023-03-29T07:01:48.646Z,101212.63
2023-03-29T07:04:37.278Z,101210.19
2023-03-29T07:07:19.781Z,101210.31
2023-03-29T07:09:55.625Z,101211.72
2023-03-29T07:12:49.637Z,101203.50
2023-03-29T07:15:18.793Z,101196.81
2023-03-29T07:18:07.594Z,101187.44
2023-03-29T07:20:38.368Z,101197.59
2023-03-29T07:23:09.491Z,101196.03
2023-03-29T07:25:39.441Z,101185.91
2023-03-29T07:28:08.195Z,101187.47
2023-03-29T07:30:37.307Z,101193.22
2023-03-29T07:33:13.365Z,101188.59
2023-03-29T07:35:48.478Z,101196.13
2023-03-29T07:38:16.722Z,101201.00
2023-03-29T07:40:53.623Z,101196.22
2023-03-29T07:43:40.263Z,101186.88
2023-03-29T07:46:10.268Z,101197.63
2023-03-29T07:48:40.240Z,101191.16
2023-03-29T07:51:14.431Z,101190.00
2023-03-29T07:53:56.181Z,101190.06
2023-03-29T07:56:41.609Z,101188.41
2023-03-29T07:59:12.712Z,101178.78
2023-03-29T08:01:43.126Z,101186.63
2023-03-29T08:04:37.399Z,101186.44
2023-03-29T08:07:28.868Z,101183.97
2023-03-29T08:10:17.720Z,101187.50
2023-03-29T08:13:25.583Z,101180.94
2023-03-29T08:16:12.208Z,101181.69
2023-03-29T08:18:49.708Z,101171.31
2023-03-29T08:21:18.488Z,101175.84
2023-03-29T08:23:50.278Z,101179.97
2023-03-29T08:26:25.799Z,101180.31
2023-03-29T08:28:55.677Z,101170.72
2023-03-29T08:31:25.480Z,101172.22
2023-03-29T08:33:54.199Z,101173.50
2023-03-29T08:36:41.849Z,101173.66
2023-03-29T08:39:19.507Z,101174.44
2023-03-29T08:42:06.645Z,101176.00
2023-03-29T08:45:01.436Z,101172.91
2023-03-29T08:47:38.462Z,101159.28
2023-03-29T08:50:12.243Z,101160.97
2023-03-29T08:52:48.302Z,101166.53
2023-03-29T08:55:49.929Z,101168.78
2023-03-29T08:58:45.699Z,101176.75
2023-03-29T09:01:15.977Z,101180.69
2023-03-29T09:04:05.006Z,101167.84
2023-03-29T09:06:57.836Z,101147.75
2023-03-29T09:09:36.042Z,101146.69
2023-03-29T09:12:26.972Z,101142.00
2023-03-29T09:15:15.342Z,101142.94
2023-03-29T09:18:02.413Z,101151.88
2023-03-29T09:20:46.037Z,101145.28
2023-03-29T09:23:30.389Z,101144.47
2023-03-29T09:26:24.171Z,101139.72
2023-03-29T09:29:27.027Z,101141.25
2023-03-29T09:31:57.194Z,101135.16
2023-03-29T09:34:32.440Z,101135.72
2023-03-29T09:37:12.551Z,101136.50
2023-03-29T09:39:42.512Z,101136.72
2023-03-29T09:42:17.416Z,101134.22
2023-03-29T09:44:48.814Z,101132.41
2023-03-29T09:47:26.309Z,101116.31
2023-03-29T09:50:03.666Z,101122.78
2023-03-29T09:52:33.585Z,101129.25
2023-03-29T09:55:15.048Z,101108.03
2023-03-29T09:57:53.359Z,101100.09
2023-03-29T10:00:22.429Z,101106.72
2023-03-29T10:02:54.628Z,101107.19
2023-03-29T10:05:36.754Z,101100.66
2023-03-29T10:08:20.237Z,101098.13
2023-03-29T10:10:49.369Z,101099.09
2023-03-29T10:13:22.846Z,101105.00
2023-03-29T10:16:05.645Z,101109.88
2023-03-29T10:18:35.006Z,101105.69
2023-03-29T10:21:06.126Z,101105.38
2023-03-29T10:23:35.895Z,101112.63
2023-03-29T10:26:07.803Z,101101.09
2023-03-29T10:28:37.753Z,101121.28
2023-03-29T10:31:08.269Z,101117.88
2023-03-29T10:33:37.454Z,101113.03
2023-03-29T10:36:08.733Z,101102.53
2023-03-29T10:38:38.522Z,101088.03
2023-03-29T10:41:10.318Z,101086.97
2023-03-29T10:43:40.088Z,101072.59
2023-03-29T10:46:10.859Z,101080.31
2023-03-29T10:48:49.469Z,101073.50
2023-03-29T10:51:20.532Z,101065.81
2023-03-29T10:53:49.066Z,101047.19
2023-03-29T10:56:33.224Z,101057.81
2023-03-29T10:59:16.576Z,101045.59
2023-03-29T11:01:59.111Z,101048.69
2023-03-29T11:04:40.938Z,101044.75
2023-03-29T11:07:27.146Z,101042.88
2023-03-29T11:10:04.765Z,101028.41
2023-03-29T11:12:38.811Z,101036.75
2023-03-29T11:15:32.167Z,101034.66
2023-03-29T11:18:13.555Z,101026.53
2023-03-29T11:20:46.333Z,101034.63
2023-03-29T11:23:27.460Z,101038.31
2023-03-29T11:26:07.845Z,101033.97
2023-03-29T11:28:43.163Z,101043.72
2023-03-29T11:31:22.772Z,101035.69
2023-03-29T11:34:06.117Z,101050.06
2023-03-29T11:36:44.592Z,101036.38
2023-03-29T11:39:24.696Z,101036.03
2023-03-29T11:41:57.456Z,101031.13
2023-03-29T11:44:30.963Z,101031.06
2023-03-29T11:47:03.617Z,101029.03
2023-03-29T11:49:37.881Z,101024.56
2023-03-29T11:52:13.522Z,101040.56
2023-03-29T11:54:46.737Z,101029.34
2023-03-29T11:57:21.993Z,101024.22
2023-03-29T11:59:57.118Z,101026.56
2023-03-29T12:02:32.192Z,101024.22
2023-03-29T12:05:07.820Z,101031.00
2023-03-29T12:07:42.942Z,101024.13
2023-03-29T12:10:19.517Z,101009.50
2023-03-29T12:12:55.882Z,101003.50
2023-03-29T12:15:27.086Z,101012.72
2023-03-29T12:18:02.969Z,101010.91
2023-03-29T12:20:34.003Z,101022.63
2023-03-29T12:23:03.808Z,101020.91
2023-03-29T12:25:42.002Z,101025.94
2023-03-29T12:28:33.246Z,101021.41
2023-03-29T12:31:12.949Z,101013.09
2023-03-29T12:33:57.338Z,101013.94
2023-03-29T12:37:01.978Z,101003.28
2023-03-29T12:40:11.815Z,100997.03
2023-03-29T12:43:04.383Z,100990.84
2023-03-29T12:45:56.238Z,100996.16
2023-03-29T12:48:27.695Z,100999.91
2023-03-29T12:51:01.844Z,100984.53
2023-03-29T12:53:35.523Z,100996.16
2023-03-29T12:56:14.506Z,100987.75
2023-03-29T12:58:54.011Z,100979.78
2023-03-29T13:01:29.179Z,100969.13
2023-03-29T13:04:14.307Z,100957.78
2023-03-29T13:07:02.800Z,100963.44
2023-03-29T13:09:35.569Z,100951.78
2023-03-29T13:12:22.768Z,100960.63
2023-03-29T13:14:55.159Z,100946.97
2023-03-29T13:17:28.428Z,100948.31
2023-03-29T13:20:13.917Z,100944.72
2023-03-29T13:22:52.624Z,100945.16
2023-03-29T13:25:38.857Z,100940.91
2023-03-29T13:28:16.042Z,100932.72
2023-03-29T13:30:54.110Z,100919.56
2023-03-29T13:33:45.786Z,100924.19
2023-03-29T13:36:21.681Z,100918.53
2023-03-29T13:38:53.436Z,100914.53
2023-03-29T13:41:29.585Z,100918.72
2023-03-29T13:43:58.718Z,100926.47
2023-03-29T13:46:40.946Z,100925.84
2023-03-29T13:49:18.993Z,100914.34
2023-03-29T13:52:03.901Z,100912.19
2023-03-29T13:54:37.478Z,100911.25
2023-03-29T13:57:12.279Z,100923.97
2023-03-29T13:59:49.173Z,100927.19
2023-03-29T14:02:28.755Z,100920.63
2023-03-29T14:04:59.876Z,100910.31
2023-03-29T14:07:31.168Z,100895.38
2023-03-29T14:10:01.182Z,100911.72
2023-03-29T14:12:34.510Z,100908.50
2023-03-29T14:15:04.947Z,100906.59
2023-03-29T14:17:37.514Z,100906.22
2023-03-29T14:20:09.875Z,100907.53
2023-03-29T14:22:38.615Z,100913.41
2023-03-29T14:25:13.873Z,100914.09
2023-03-29T14:27:42.722Z,100915.72
2023-03-29T14:30:23.774Z,100918.69
2023-03-29T14:32:53.483Z,100921.31
2023-03-29T14:35:29.429Z,100920.97
2023-03-29T14:37:58.165Z,100916.91
2023-03-29T14:40:27.721Z,100925.16
2023-03-29T14:42:56.297Z,100918.19
2023-03-29T14:45:24.775Z,100912.94
2023-03-29T14:47:54.653Z,100914.41
2023-03-29T14:50:26.197Z,100920.13
2023-03-29T14:52:55.530Z,100909.50
2023-03-29T14:55:25.158Z,100913.97
2023-03-29T14:57:55.735Z,100920.81
2023-03-29T15:00:28.147Z,100924.09
2023-03-29T15:02:59.534Z,100914.84
2023-03-29T15:05:36.315Z,100907.56
2023-03-29T15:08:07.411Z,100906.97
2023-03-29T15:10:37.714Z,100903.03
2023-03-29T15:13:08.423Z,100912.63
2023-03-29T15:15:39.109Z,100921.78
2023-03-29T15:18:14.494Z,100906.28
2023-03-29T15:20:44.817Z,100898.56
2023-03-29T15:23:25.390Z,100902.38
2023-03-29T15:25:56.363Z,100905.13
2023-03-29T15:28:28.174Z,100902.88
2023-03-29T15:31:07.657Z,100907.03
2023-03-29T15:33:39.945Z,100907.69
2023-03-29T15:36:11.223Z,100905.78
2023-03-29T15:38:44.433Z,100898.56
2023-03-29T15:41:14.637Z,100910.84
2023-03-29T15:43:43.547Z,100901.50
2023-03-29T15:46:13.082Z,100887.94
2023-03-29T15:48:43.045Z,100885.28
2023-03-29T15:51:12.981Z,100884.16
2023-03-29T15:53:41.943Z,100882.00
2023-03-29T15:56:15.315Z,100871.19
2023-03-29T15:58:44.228Z,100884.63
2023-03-29T16:01:34.460Z,100876.44
2023-03-29T16:04:06.314Z,100880.34
2023-03-29T16:06:36.244Z,100872.66
2023-03-29T16:09:06.309Z,100869.25
2023-03-29T16:11:34.501Z,100868.22
2023-03-29T16:14:02.894Z,100874.38
2023-03-29T16:16:31.382Z,100866.69
2023-03-29T16:18:59.574Z,100874.56
2023-03-29T16:21:29.243Z,100867.53
2023-03-29T16:23:57.395Z,100872.94
2023-03-29T16:26:26.658Z,100867.72
2023-03-29T16:28:54.824Z,100872.50
2023-03-29T16:31:25.865Z,100876.44
2023-03-29T16:33:54.593Z,100878.91
2023-03-29T16:36:22.875Z,100865.84
2023-03-29T16:38:53.568Z,100870.44
2023-03-29T16:41:22.451Z,100868.81
2023-03-29T16:43:51.136Z,100863.97
2023-03-29T16:46:19.372Z,100869.00
2023-03-29T16:48:48.907Z,100876.25
2023-03-29T16:51:17.059Z,100880.19
2023-03-29T16:53:47.743Z,100867.78
2023-03-29T16:56:17.864Z,100868.13
2023-03-29T16:58:47.186Z,100869.38
2023-03-29T17:01:17.660Z,100869.09
2023-03-29T17:03:46.039Z,100867.34
2023-03-29T17:06:14.165Z,100870.53
2023-03-29T17:08:42.889Z,100867.88
2023-03-29T17:11:11.785Z,100874.06
2023-03-29T17:13:41.507Z,100874.09
2023-03-29T17:16:09.807Z,100867.34
2023-03-29T17:18:38.174Z,100862.66
2023-03-29T17:21:07.392Z,100866.59
2023-03-29T17:23:35.571Z,100857.16
2023-03-29T17:26:03.928Z,100859.41
2023-03-29T17:28:32.459Z,100866.53
2023-03-29T17:31:04.716Z,100861.72
2023-03-29T17:33:32.879Z,100865.91
2023-03-29T17:38:30.360Z,100856.66
2023-03-29T17:40:58.533Z,100850.66
2023-03-29T17:43:26.834Z,100867.63
2023-03-29T17:45:56.011Z,100857.59
2023-03-29T17:48:25.939Z,100856.44
2023-03-29T17:50:56.255Z,100859.22
2023-03-29T17:53:24.552Z,100861.22
2023-03-29T17:55:53.235Z,100856.72
2023-03-29T17:58:21.605Z,100856.72
2023-03-29T18:00:49.838Z,100864.72
2023-03-29T18:03:18.197Z,100856.78
2023-03-29T18:05:47.793Z,100863.03
2023-03-29T18:08:16.779Z,100860.63
2023-03-29T18:10:45.111Z,100867.44
2023-03-29T18:13:14.718Z,100861.09
2023-03-29T18:15:44.075Z,100861.53
2023-03-29T18:18:12.339Z,100847.53
2023-03-29T18:20:40.744Z,100855.81
2023-03-29T18:23:10.356Z,100859.88
2023-03-29T18:25:38.737Z,100853.22
2023-03-29T18:28:06.909Z,100851.19
2023-03-29T18:30:35.739Z,100846.44
2023-03-29T18:33:04.013Z,100833.31
2023-03-29T18:35:32.446Z,100830.72
2023-03-29T18:38:00.771Z,100825.69
2023-03-29T18:40:30.422Z,100838.06
2023-03-29T18:42:58.636Z,100838.69
2023-03-29T18:45:26.918Z,100833.97
2023-03-29T18:47:55.207Z,100842.63
2023-03-29T18:50:23.588Z,100841.63
2023-03-29T18:52:52.285Z,100839.13
2023-03-29T18:55:20.948Z,100847.91
2023-03-29T18:57:50.572Z,100842.25
2023-03-29T19:00:19.516Z,100841.72
2023-03-29T19:02:48.270Z,100838.28
2023-03-29T19:05:16.613Z,100844.66
2023-03-29T19:07:45.084Z,100842.78
2023-03-29T19:10:13.307Z,100844.66
2023-03-29T19:12:41.527Z,100851.28
2023-03-29T19:15:12.702Z,100848.16
2023-03-29T19:17:40.904Z,100835.09
2023-03-29T19:20:11.005Z,100831.38
2023-03-29T19:22:39.936Z,100843.41
2023-03-29T19:25:09.490Z,100839.13
2023-03-29T19:27:37.669Z,100837.44
2023-03-29T19:30:07.225Z,100840.69
2023-03-29T19:32:36.916Z,100838.81
2023-03-29T19:35:05.717Z,100835.94
2023-03-29T19:37:33.830Z,100833.84
2023-03-29T19:40:02.035Z,100831.44
2023-03-29T19:42:30.187Z,100831.97
2023-03-29T19:44:58.300Z,100828.25
2023-03-29T19:47:27.064Z,100829.25
2023-03-29T19:49:57.904Z,100824.34
2023-03-29T19:52:27.834Z,100823.44
2023-03-29T19:54:56.663Z,100824.41
2023-03-29T19:57:25.490Z,100831.19
2023-03-29T19:59:54.066Z,100822.50
2023-03-29T20:02:22.308Z,100819.94
2023-03-29T20:04:50.673Z,100810.56
2023-03-29T20:07:20.236Z,100815.00
2023-03-29T20:09:48.814Z,100813.31
2023-03-29T20:12:16.918Z,100807.19
2023-03-29T20:14:45.111Z,100809.91
2023-03-29T20:17:13.460Z,100795.59
2023-03-29T20:19:44.040Z,100807.09
2023-03-29T20:22:13.266Z,100803.13
2023-03-29T20:24:43.169Z,100801.72
2023-03-29T20:27:11.291Z,100794.47
2023-03-29T20:29:39.536Z,100787.72
2023-03-29T20:32:09.134Z,100786.72
2023-03-29T20:34:37.408Z,100786.41
2023-03-29T20:37:06.294Z,100777.69
2023-03-29T20:39:34.660Z,100778.22
2023-03-29T20:42:04.153Z,100778.47
2023-03-29T20:44:34.801Z,100773.41
2023-03-29T20:47:05.095Z,100770.06
2023-03-29T20:49:37.903Z,100764.47
2023-03-29T20:52:08.297Z,100769.41
2023-03-29T20:54:38.686Z,100758.19
2023-03-29T20:57:09.200Z,100757.34
2023-03-29T20:59:37.993Z,100752.22
2023-03-29T21:02:06.559Z,100756.69
2023-03-29T21:04:35.308Z,100748.19
2023-03-29T21:07:05.085Z,100748.63
2023-03-29T21:09:34.156Z,100746.28
2023-03-29T21:12:03.143Z,100749.47
2023-03-29T21:14:33.290Z,100742.19
2023-03-29T21:17:01.605Z,100736.75
2023-03-29T21:19:30.090Z,100736.75
2023-03-29T21:21:58.224Z,100741.00
2023-03-29T21:24:26.508Z,100738.06
2023-03-29T21:26:54.758Z,100730.28
2023-03-29T21:29:22.908Z,100724.69
2023-03-29T21:31:52.414Z,100736.81
2023-03-29T21:34:20.654Z,100722.66
2023-03-29T21:36:48.838Z,100725.31
2023-03-29T21:39:17.167Z,100719.06
2023-03-29T21:41:45.333Z,100715.81
2023-03-29T21:44:13.782Z,100715.91
2023-03-29T21:46:42.003Z,100713.47
2023-03-29T21:49:11.693Z,100709.22
2023-03-29T21:51:39.858Z,100705.97
2023-03-29T21:54:08.032Z,100703.84
2023-03-29T21:56:36.190Z,100714.81
2023-03-29T21:59:05.154Z,100711.56
2023-03-29T22:01:33.371Z,100703.63
2023-03-29T22:04:01.905Z,100701.63
2023-03-29T22:06:31.428Z,100698.56
2023-03-29T22:09:00.750Z,100695.22
2023-03-29T22:11:29.540Z,100694.13
2023-03-29T22:13:57.807Z,100693.84
2023-03-29T22:16:28.087Z,100697.00
2023-03-29T22:18:56.251Z,100691.59
2023-03-29T22:21:26.585Z,100684.44
2023-03-29T22:23:57.829Z,100683.03
2023-03-29T22:26:28.440Z,100680.84
2023-03-29T22:28:57.542Z,100675.16
2023-03-29T22:31:27.446Z,100675.75
2023-03-29T22:33:55.859Z,100666.09
2023-03-29T22:36:26.866Z,100673.06
2023-03-29T22:38:56.673Z,100672.53
2023-03-29T22:41:27.613Z,100673.41
2023-03-29T22:43:57.552Z,100673.00
2023-03-29T22:46:26.525Z,100667.56
2023-03-29T22:48:54.775Z,100668.19
2023-03-29T22:51:22.945Z,100659.72
2023-03-29T22:53:51.511Z,100659.66
2023-03-29T22:56:21.845Z,100660.81
2023-03-29T22:58:50.538Z,100655.75
2023-03-29T23:01:18.808Z,100654.91
2023-03-29T23:03:47.433Z,100656.94
2023-03-29T23:06:15.579Z,100652.41
2023-03-29T23:08:43.880Z,100654.19
2023-03-29T23:11:12.368Z,100642.19
2023-03-29T23:13:41.871Z,100648.84
2023-03-29T23:16:10.389Z,100643.25
2023-03-29T23:18:38.803Z,100643.22
2023-03-29T23:21:08.897Z,100648.06
2023-03-29T23:23:37.095Z,100640.38
2023-03-29T23:26:06.525Z,100648.97
2023-03-29T23:28:34.935Z,100641.84
2023-03-29T23:31:07.000Z,100639.06
2023-03-29T23:33:38.466Z,100628.25
2023-03-29T23:36:08.872Z,100616.06
2023-03-29T23:38:38.745Z,100618.69
2023-03-29T23:41:10.815Z,100619.31
2023-03-29T23:43:43.773Z,100614.72
2023-03-29T23:46:15.374Z,100612.00
2023-03-29T23:48:45.863Z,100611.84
2023-03-29T23:51:14.108Z,100606.63
2023-03-29T23:53:42.407Z,100610.94
2023-03-29T23:56:10.637Z,100620.97
2023-03-29T23:58:39.116Z,100616.75
